Mc Donald, Pennsylvania
Current Conditions -  °F | °C
As of 9:51 AM on Wednesday 22 Oct 2014 (Local Time) from KPIT Reporting Station
Overcast Overcast  
Wind Chill: 41°   Ceiling: 1000
Heat Index: 47°   Visibility: 10mi
Dew Point: 44°   Wind: 13mph
Humidity: 90%   Direction: 350°N
Pressure: 30.15"   Gusts: NA
Location:  40.3662°N, 80.2739°W
Report Text: KPIT 221351Z 35011KT 10SM OVC010 08/07 A3015 RMK AO2 SLP221 T00830067
Loading
Personal Weather Stations






























Interactive Weather Map New forecast layout! Learn more

10-Day Weather Forecast

Advertisements
Track Severe Weather on mobile